Time;durP1;ratioP1;P1;durP2;ratioP2;P2;SDS_P1;SDS_P2;PMS_P1;PMS_P2;Temp;Humidity;BMP_temperature;BMP_pressure;BME280_temperature;BME280_humidity;BME280_pressure;Samples;Min_cycle;Max_cycle;Signal;HPM_P1;HPM_P2
2023/01/10 00:01:48;;;;;;;17.15;4.25;;;;;;;5.53;100.00;100990.53;5032610;28;20219;-77
2023/01/10 00:04:14;;;;;;;28.40;5.65;;;;;;;5.62;100.00;100994.69;5066650;28;20032;-76
2023/01/10 00:06:40;;;;;;;26.83;5.20;;;;;;;5.60;100.00;100986.78;5047691;28;20032;-76
2023/01/10 00:09:08;;;;;;;23.77;4.38;;;;;;;5.62;100.00;100990.25;5066853;28;20506;-76
2023/01/10 00:14:28;;;;;;;18.23;3.72;;;;;;;5.58;100.00;100988.63;5014270;28;20045;-76
2023/01/10 00:16:54;;;;;;;26.48;4.28;;;;;;;5.56;100.00;101003.69;5049591;28;20094;-76
2023/01/10 00:19:20;;;;;;;20.52;4.40;;;;;;;5.58;100.00;101003.66;5050127;28;20048;-76
2023/01/10 00:21:47;;;;;;;27.75;4.72;;;;;;;5.62;100.00;101007.94;5038808;28;20083;-76
2023/01/10 00:24:21;;;;;;;25.80;4.80;;;;;;;5.67;100.00;101003.38;5069793;28;20047;-77
2023/01/10 00:26:51;;;;;;;20.00;3.95;;;;;;;5.71;100.00;101022.69;5070240;28;20052;-76
2023/01/10 00:29:19;;;;;;;25.13;4.72;;;;;;;5.73;100.00;101026.13;5052542;28;20486;-76
2023/01/10 00:31:45;;;;;;;31.65;5.78;;;;;;;5.78;100.00;101025.06;5059832;28;20033;-76
2023/01/10 00:34:12;;;;;;;24.05;4.05;;;;;;;5.88;100.00;101038.03;5048786;28;20075;-76
2023/01/10 00:36:38;;;;;;;27.60;4.55;;;;;;;5.94;100.00;101035.16;5068617;28;20044;-76
2023/01/10 00:39:05;;;;;;;27.88;3.88;;;;;;;5.95;100.00;101043.09;5050643;28;20047;-76
2023/01/10 00:44:16;;;;;;;25.73;4.05;;;;;;;5.84;100.00;101047.84;5049586;28;20417;-76
2023/01/10 00:46:42;;;;;;;30.92;3.92;;;;;;;5.76;100.00;101048.09;5052137;28;20510;-76
2023/01/10 00:49:10;;;;;;;34.00;5.53;;;;;;;5.70;100.00;101060.66;5069293;28;20824;-77
2023/01/10 00:51:37;;;;;;;28.60;4.93;;;;;;;5.64;100.00;101067.03;5070344;28;20044;-76
2023/01/10 00:54:03;;;;;;;25.27;4.22;;;;;;;5.66;100.00;101065.19;5070225;28;20040;-76
2023/01/10 00:56:30;;;;;;;26.52;5.35;;;;;;;5.73;100.00;101066.72;5035330;28;20037;-78
2023/01/10 00:58:56;;;;;;;35.25;5.70;;;;;;;5.78;100.00;101078.06;5068571;28;20036;-76
2023/01/10 01:01:23;;;;;;;25.38;3.55;;;;;;;5.79;100.00;101079.78;5069772;28;20056;-76
2023/01/10 01:03:49;;;;;;;27.73;3.90;;;;;;;5.78;100.00;101085.16;5052441;28;20033;-77
2023/01/10 01:06:17;;;;;;;32.10;4.43;;;;;;;5.74;100.00;101078.19;5065181;28;20048;-77
2023/01/10 01:08:43;;;;;;;28.80;4.10;;;;;;;5.74;100.00;101078.19;5051024;28;20429;-76
2023/01/10 01:11:10;;;;;;;29.55;4.47;;;;;;;5.75;100.00;101082.56;5034260;28;20024;-76
2023/01/10 01:13:36;;;;;;;34.22;4.95;;;;;;;5.72;100.00;101080.91;5070261;28;20036;-77
2023/01/10 01:16:02;;;;;;;24.98;5.00;;;;;;;5.73;100.00;101087.91;5051928;28;20493;-76
2023/01/10 01:18:28;;;;;;;29.75;4.75;;;;;;;5.77;100.00;101094.84;5050607;28;20059;-76
2023/01/10 01:20:56;;;;;;;27.88;3.85;;;;;;;5.78;100.00;101096.59;5048046;28;20060;-76
2023/01/10 01:23:23;;;;;;;27.67;4.60;;;;;;;5.76;100.00;101103.72;5016890;28;20037;-76
2023/01/10 01:25:51;;;;;;;33.35;5.05;;;;;;;5.77;100.00;101108.09;5050360;28;20427;-75
2023/01/10 01:28:17;;;;;;;32.28;4.80;;;;;;;5.79;100.00;101108.91;5062280;28;20029;-76
2023/01/10 01:30:43;;;;;;;32.78;5.43;;;;;;;5.76;100.00;101109.03;5049676;28;20029;-76
2023/01/10 01:33:10;;;;;;;33.08;4.72;;;;;;;5.77;100.00;101109.88;5069978;28;20376;-76
2023/01/10 01:35:36;;;;;;;34.00;4.53;;;;;;;5.74;100.00;101112.63;5034012;28;20058;-77
2023/01/10 01:38:02;;;;;;;31.73;5.25;;;;;;;5.69;100.00;101107.47;5068795;28;20032;-77
2023/01/10 01:40:29;;;;;;;38.42;5.80;;;;;;;5.66;100.00;101126.09;5049835;28;20109;-77
2023/01/10 01:42:55;;;;;;;25.40;4.43;;;;;;;5.59;100.00;101119.25;5051745;28;20395;-76
2023/01/10 01:45:25;;;;;;;28.05;4.57;;;;;;;5.57;100.00;101121.09;5051396;28;20786;-76
2023/01/10 01:47:59;;;;;;;27.15;5.32;;;;;;;5.60;100.00;101131.59;5069622;28;20037;-76
2023/01/10 01:50:38;;;;;;;35.67;4.70;;;;;;;5.63;100.00;101134.16;5051940;28;20454;-77
2023/01/10 01:53:09;;;;;;;29.27;5.30;;;;;;;5.68;100.00;101121.63;5046604;28;20040;-77
2023/01/10 01:55:36;;;;;;;29.63;5.03;;;;;;;5.70;100.00;101130.38;5051275;28;20094;-76
2023/01/10 01:58:09;;;;;;;36.20;5.60;;;;;;;5.74;100.00;101128.50;5053297;28;20120;-75
2023/01/10 02:00:35;;;;;;;43.17;5.05;;;;;;;5.74;100.00;101132.06;5045648;28;20059;-76
2023/01/10 02:03:02;;;;;;;36.70;5.22;;;;;;;5.77;100.00;101139.88;5055822;28;20471;-76
2023/01/10 02:05:29;;;;;;;33.22;4.53;;;;;;;5.79;100.00;101137.19;5067152;28;20839;-78
2023/01/10 02:07:58;;;;;;;38.53;5.82;;;;;;;5.82;100.00;101131.81;5053984;28;20032;-76
2023/01/10 02:10:27;;;;;;;35.88;5.65;;;;;;;5.86;100.00;101132.59;5035460;28;20521;-76
2023/01/10 02:12:55;;;;;;;43.50;5.28;;;;;;;5.90;100.00;101135.06;5048285;28;20073;-76
2023/01/10 02:15:21;;;;;;;29.25;4.15;;;;;;;5.94;100.00;101133.19;5021188;28;20481;-77
2023/01/10 02:17:49;;;;;;;30.58;4.75;;;;;;;5.97;100.00;101143.75;5050572;28;20036;-76
2023/01/10 02:20:18;;;;;;;31.98;4.05;;;;;;;5.98;100.00;101140.16;5034089;28;20036;-76
2023/01/10 02:23:14;;;;;;;33.33;4.82;;;;;;;6.05;100.00;101133.75;5033122;28;20383;-76
2023/01/10 02:25:47;;;;;;;25.52;4.60;;;;;;;6.10;100.00;101139.78;5067248;28;20030;-76
2023/01/10 02:28:28;;;;;;;29.42;4.53;;;;;;;6.15;100.00;101142.28;5055919;28;20040;-76
2023/01/10 02:31:13;;;;;;;37.65;4.97;;;;;;;6.17;100.00;101136.03;5064022;28;20028;-76
2023/01/10 02:33:44;;;;;;;30.52;4.57;;;;;;;6.20;100.00;101130.59;5060873;28;20040;-77
2023/01/10 02:36:26;;;;;;;30.30;4.03;;;;;;;6.17;100.00;101130.72;5050682;28;20151;-76
2023/01/10 02:38:52;;;;;;;;;;;;;;;6.13;100.00;101129.09;5067651;28;20042;-77
2023/01/10 02:41:27;;;;;;;37.13;4.88;;;;;;;5.98;100.00;101125.16;5067883;28;20073;-77
2023/01/10 02:44:08;;;;;;;28.70;5.70;;;;;;;5.87;100.00;101126.34;5048581;28;20409;-77
2023/01/10 02:46:36;;;;;;;40.50;5.93;;;;;;;5.80;100.00;101134.50;5061706;28;20044;-77
2023/01/10 02:49:03;;;;;;;32.70;6.45;;;;;;;5.80;100.00;101144.25;5061793;28;20052;-77
2023/01/10 02:51:33;;;;;;;42.67;5.68;;;;;;;5.83;100.00;101137.06;5050332;28;20036;-77
2023/01/10 02:54:12;;;;;;;36.25;5.10;;;;;;;5.91;100.00;101146.53;5049418;28;20375;-77
2023/01/10 02:57:16;;;;;;;36.00;5.35;;;;;;;5.98;100.00;101150.75;5066071;28;20544;-77
2023/01/10 02:59:51;;;;;;;33.08;4.82;;;;;;;6.03;100.00;101153.28;5066053;28;20039;-77
2023/01/10 03:02:42;;;;;;;40.08;7.25;;;;;;;6.07;100.00;101161.09;5032159;28;20513;-77
2023/01/10 03:05:34;;;;;;;39.97;5.18;;;;;;;6.09;100.00;101167.19;5066432;28;20426;-76
2023/01/10 03:08:21;;;;;;;32.13;5.00;;;;;;;6.16;100.00;101171.41;5046832;28;20131;-77
2023/01/10 03:10:53;;;;;;;43.55;5.57;;;;;;;6.24;100.00;101170.28;5057456;28;20044;-76
2023/01/10 03:13:26;;;;;;;40.03;7.10;;;;;;;6.26;100.00;101177.25;5055479;28;20048;-76
2023/01/10 03:15:54;;;;;;;40.83;6.13;;;;;;;6.29;100.00;101184.28;5032772;28;20064;-76
2023/01/10 03:18:24;;;;;;;37.53;6.07;;;;;;;6.31;100.00;101188.59;5051101;28;20025;-76
2023/01/10 03:20:51;;;;;;;33.33;4.97;;;;;;;6.28;100.00;101190.47;5021694;28;20121;-77
2023/01/10 03:23:18;;;;;;;30.63;4.55;;;;;;;6.26;100.00;101192.31;5033416;28;20030;-76
2023/01/10 03:25:45;;;;;;;35.50;4.80;;;;;;;6.26;100.00;101194.97;5016351;28;20410;-77
2023/01/10 03:28:25;;;;;;;32.35;5.53;;;;;;;6.27;100.00;101197.56;5049724;28;20433;-76
2023/01/10 03:30:57;;;;;;;33.88;5.03;;;;;;;6.28;100.00;101212.56;5047938;28;20119;-77
2023/01/10 03:33:25;;;;;;;34.78;5.65;;;;;;;6.36;100.00;101214.97;5041290;28;20032;-77
2023/01/10 03:36:13;;;;;;;33.30;4.82;;;;;;;6.36;100.00;101221.16;5049389;28;20448;-77
2023/01/10 03:38:51;;;;;;;37.55;5.68;;;;;;;6.38;100.00;101226.41;5067414;28;20043;-77
2023/01/10 03:41:32;;;;;;;31.00;4.80;;;;;;;6.34;100.00;101222.13;5061647;28;20036;-76
2023/01/10 03:44:45;;;;;;;30.65;5.30;;;;;;;6.22;100.00;101226.00;5064989;28;20441;-77
2023/01/10 03:47:31;;;;;;;41.70;5.75;;;;;;;6.14;100.00;101234.19;5064590;28;20074;-77
2023/01/10 03:50:11;;;;;;;38.50;6.80;;;;;;;6.07;100.00;101234.44;5033730;28;20049;-77
2023/01/10 03:52:39;;;;;;;41.05;6.95;;;;;;;6.10;100.00;101244.94;5032475;28;20482;-76
2023/01/10 03:55:09;;;;;;;43.25;6.28;;;;;;;6.18;100.00;101245.56;5048606;28;20033;-77
2023/01/10 03:57:35;;;;;;;40.13;5.10;;;;;;;6.26;100.00;101245.34;5039265;28;20398;-77
2023/01/10 04:00:03;;;;;;;22.50;4.22;;;;;;;6.35;100.00;101250.34;5032441;28;20047;-76
2023/01/10 04:02:31;;;;;;;34.28;5.93;;;;;;;6.39;100.00;101257.28;5033455;28;20044;-76
2023/01/10 04:04:58;;;;;;;29.00;5.35;;;;;;;6.37;100.00;101253.81;5043382;28;20047;-77
2023/01/10 04:07:24;;;;;;;37.95;6.03;;;;;;;6.33;100.00;101257.50;5049346;28;20037;-77
2023/01/10 04:09:51;;;;;;;34.53;5.22;;;;;;;6.30;100.00;101262.88;5066241;28;20037;-76
2023/01/10 04:12:17;;;;;;;44.38;5.90;;;;;;;6.30;100.00;101266.41;5039001;28;20028;-77
2023/01/10 04:14:46;;;;;;;35.08;6.40;;;;;;;6.28;100.00;101264.72;5033531;28;20067;-76
2023/01/10 04:17:16;;;;;;;38.35;7.35;;;;;;;6.28;100.00;101270.00;5048916;28;20040;-77
2023/01/10 04:19:42;;;;;;;34.22;4.30;;;;;;;6.27;100.00;101265.66;5068365;28;20060;-77
2023/01/10 04:22:09;;;;;;;29.13;4.32;;;;;;;6.27;100.00;101273.59;5070549;28;20028;-77
2023/01/10 04:24:36;;;;;;;33.30;5.43;;;;;;;6.24;100.00;101268.38;5052246;28;20040;-76
2023/01/10 04:27:02;;;;;;;39.13;6.10;;;;;;;6.20;100.00;101273.75;5070518;28;20037;-76
2023/01/10 04:29:28;;;;;;;31.80;5.65;;;;;;;6.05;100.00;101271.59;5050685;28;20554;-77
2023/01/10 04:31:54;;;;;;;38.45;5.20;;;;;;;6.03;100.00;101286.66;5035850;28;20037;-77
2023/01/10 04:34:21;;;;;;;41.95;5.43;;;;;;;5.96;100.00;101291.28;5070788;28;20028;-77
2023/01/10 04:36:48;;;;;;;39.13;5.75;;;;;;;5.92;100.00;101294.88;5049849;28;20720;-77
2023/01/10 04:39:15;;;;;;;33.88;5.53;;;;;;;5.89;100.00;101294.09;5052517;28;20044;-76
2023/01/10 04:41:41;;;;;;;38.42;4.95;;;;;;;5.86;100.00;101289.78;5060766;28;20037;-77
2023/01/10 04:44:08;;;;;;;40.67;5.93;;;;;;;5.81;100.00;101295.22;5070262;28;20078;-77
2023/01/10 04:46:34;;;;;;;32.83;5.63;;;;;;;5.76;100.00;101291.81;5035901;28;20148;-76
2023/01/10 04:49:01;;;;;;;39.75;4.65;;;;;;;5.70;100.00;101297.28;5051380;28;20051;-77
2023/01/10 04:51:29;;;;;;;38.70;6.65;;;;;;;5.66;100.00;101300.91;5051556;28;20418;-77
2023/01/10 04:53:55;;;;;;;41.13;6.22;;;;;;;5.62;100.00;101301.91;5070445;28;20477;-77
2023/01/10 04:56:22;;;;;;;34.38;5.50;;;;;;;5.57;100.00;101293.22;5033913;28;20487;-76
2023/01/10 04:58:49;;;;;;;36.38;5.53;;;;;;;5.48;100.00;101286.41;5035412;28;20040;-77
2023/01/10 05:01:19;;;;;;;43.42;5.05;;;;;;;5.36;100.00;101279.66;5052700;28;20032;-77
2023/01/10 05:03:47;;;;;;;45.08;6.68;;;;;;;5.27;100.00;101290.50;5062759;28;20397;-77
2023/01/10 05:06:14;;;;;;;51.03;7.78;;;;;;;5.19;100.00;101293.34;5035681;28;20056;-77
2023/01/10 05:08:41;;;;;;;44.05;4.93;;;;;;;5.11;100.00;101297.97;5035254;28;20036;-77
2023/01/10 05:11:07;;;;;;;37.85;5.53;;;;;;;5.04;100.00;101305.19;5052145;28;20044;-77
2023/01/10 05:13:33;;;;;;;28.48;4.78;;;;;;;4.95;100.00;101316.00;5069712;28;20048;-77
2023/01/10 05:16:00;;;;;;;43.88;6.28;;;;;;;4.92;100.00;101331.06;5069481;28;20033;-77
2023/01/10 05:18:27;;;;;;;40.85;6.60;;;;;;;4.86;100.00;101337.38;5048241;28;20426;-77
2023/01/10 05:20:59;;;;;;;39.72;5.53;;;;;;;4.85;100.00;101340.94;5046462;28;20535;-76
2023/01/10 05:23:25;;;;;;;36.50;6.28;;;;;;;4.84;100.00;101345.34;5051696;28;20036;-76
2023/01/10 05:25:52;;;;;;;42.65;6.50;;;;;;;4.85;100.00;101346.25;5034792;28;20078;-76
2023/01/10 05:28:18;;;;;;;39.67;6.43;;;;;;;4.85;100.00;101352.38;5051930;28;20035;-76
2023/01/10 05:30:44;;;;;;;45.10;5.78;;;;;;;4.82;100.00;101357.75;5047384;28;20151;-76
2023/01/10 05:33:10;;;;;;;31.45;5.18;;;;;;;4.86;100.00;101361.19;5068737;28;20069;-77
2023/01/10 05:35:37;;;;;;;37.03;5.07;;;;;;;4.90;100.00;101364.63;5051418;28;20056;-76
2023/01/10 05:38:03;;;;;;;34.58;5.32;;;;;;;4.96;100.00;101365.38;5051278;28;20025;-77
2023/01/10 05:40:29;;;;;;;47.70;6.22;;;;;;;5.02;100.00;101367.88;5049204;28;20036;-77
2023/01/10 05:42:55;;;;;;;42.30;6.07;;;;;;;5.07;100.00;101366.88;5050457;28;20063;-76
2023/01/10 05:45:22;;;;;;;44.35;4.72;;;;;;;5.17;100.00;101379.00;5038003;28;20033;-76
2023/01/10 05:47:48;;;;;;;43.80;5.35;;;;;;;5.22;100.00;101382.41;5067251;28;20036;-77
2023/01/10 05:50:15;;;;;;;40.05;7.43;;;;;;;5.29;100.00;101383.09;5069770;28;20036;-76
2023/01/10 05:52:41;;;;;;;35.35;5.43;;;;;;;5.30;100.00;101369.84;5070443;28;20036;-76
2023/01/10 05:55:07;;;;;;;37.63;5.80;;;;;;;5.29;100.00;101373.38;5069994;28;20070;-75
2023/01/10 05:57:37;;;;;;;45.03;5.60;;;;;;;5.29;100.00;101373.38;5069078;28;20106;-76
2023/01/10 06:00:05;;;;;;;35.38;5.93;;;;;;;5.30;100.00;101369.84;5068298;28;20123;-76
2023/01/10 06:02:37;;;;;;;41.45;6.72;;;;;;;5.33;100.00;101380.38;5043763;28;20045;-76
2023/01/10 06:05:07;;;;;;;37.53;5.55;;;;;;;5.34;100.00;101376.78;5068555;28;20066;-75
2023/01/10 06:07:33;;;;;;;37.58;5.88;;;;;;;5.39;100.00;101384.63;5048379;28;20032;-76
2023/01/10 06:09:59;;;;;;;40.40;7.50;;;;;;;5.43;100.00;101396.88;5069089;28;20491;-76
2023/01/10 06:12:25;;;;;;;38.67;6.78;;;;;;;5.48;100.00;101397.63;5052896;28;20043;-77
2023/01/10 06:14:51;;;;;;;26.95;4.88;;;;;;;5.55;100.00;101395.69;5057816;28;20139;-76
2023/01/10 06:17:18;;;;;;;45.85;6.53;;;;;;;5.58;100.00;101408.88;5060486;28;20028;-75
2023/01/10 06:19:44;;;;;;;36.85;6.88;;;;;;;5.58;100.00;101403.56;5048649;28;20048;-76
2023/01/10 06:22:10;;;;;;;33.85;5.85;;;;;;;5.56;100.00;101402.75;5050146;28;20040;-76
2023/01/10 06:24:37;;;;;;;37.28;5.97;;;;;;;5.56;100.00;101411.53;5048056;28;20071;-75
2023/01/10 06:27:03;;;;;;;36.35;5.82;;;;;;;5.54;100.00;101407.22;5050884;28;20144;-76
2023/01/10 06:29:29;;;;;;;42.20;5.60;;;;;;;5.51;100.00;101397.53;5065872;28;20048;-75
2023/01/10 06:31:55;;;;;;;44.15;6.68;;;;;;;5.45;100.00;101395.06;5047312;28;20045;-75
2023/01/10 06:34:22;;;;;;;40.83;6.28;;;;;;;5.40;100.00;101411.03;5065324;28;20383;-76
2023/01/10 06:36:48;;;;;;;36.72;6.57;;;;;;;5.41;100.00;101415.44;5028350;28;20047;-76
2023/01/10 06:39:15;;;;;;;33.78;7.65;;;;;;;5.41;100.00;101418.09;5044019;28;20056;-75
2023/01/10 06:41:41;;;;;;;36.28;7.22;;;;;;;5.43;100.00;101418.94;5049035;28;20051;-75
2023/01/10 06:44:07;;;;;;;36.75;5.75;;;;;;;5.46;100.00;101427.69;5067397;28;20040;-75
2023/01/10 06:46:34;;;;;;;40.88;6.25;;;;;;;5.47;100.00;101430.31;5030936;28;20044;-75
2023/01/10 06:49:00;;;;;;;34.97;7.70;;;;;;;5.49;100.00;101432.94;5050510;28;20422;-76
2023/01/10 06:51:27;;;;;;;45.20;6.32;;;;;;;5.50;100.00;101438.19;5067633;28;20391;-76
2023/01/10 06:53:53;;;;;;;44.83;7.43;;;;;;;5.51;100.00;101453.16;5067300;28;20379;-76
2023/01/10 06:56:19;;;;;;;37.92;5.63;;;;;;;5.54;100.00;101452.22;5066243;28;20040;-76
2023/01/10 06:58:48;;;;;;;40.50;7.35;;;;;;;5.57;100.00;101452.13;5074399;28;20040;-76
2023/01/10 07:01:17;;;;;;;40.90;6.68;;;;;;;5.58;100.00;101444.16;5047169;28;20044;-76
2023/01/10 07:03:44;;;;;;;39.80;5.78;;;;;;;5.62;100.00;101439.66;5032587;28;20493;-76
2023/01/10 07:06:10;;;;;;;46.05;6.95;;;;;;;5.65;100.00;101444.88;5046326;28;20068;-76
2023/01/10 07:08:38;;;;;;;40.30;5.57;;;;;;;5.68;100.00;101446.56;5031884;28;20044;-76
2023/01/10 07:11:05;;;;;;;40.33;6.60;;;;;;;5.72;100.00;101453.53;5032362;28;20506;-76
2023/01/10 07:13:31;;;;;;;45.47;6.00;;;;;;;5.76;100.00;101458.72;5015598;28;20483;-76
2023/01/10 07:16:09;;;;;;;39.10;5.55;;;;;;;5.82;100.00;101474.47;5049368;28;20642;-76
2023/01/10 07:18:37;;;;;;;40.53;5.57;;;;;;;5.85;100.00;101470.84;5035789;28;20155;-76
2023/01/10 07:21:06;;;;;;;44.50;7.05;;;;;;;5.90;100.00;101486.66;5044648;28;20445;-76
2023/01/10 07:23:33;;;;;;;47.30;6.18;;;;;;;5.95;100.00;101487.41;5052419;28;20037;-76
2023/01/10 07:26:08;;;;;;;47.72;7.25;;;;;;;5.97;100.00;101493.56;5024814;28;20052;-76
2023/01/10 07:28:34;;;;;;;44.97;6.65;;;;;;;5.97;100.00;101498.88;5061541;28;20164;-76
2023/01/10 07:31:02;;;;;;;35.67;7.47;;;;;;;6.01;100.00;101479.31;5074578;28;20518;-76
2023/01/10 07:33:29;;;;;;;45.60;6.15;;;;;;;6.03;100.00;101487.22;5050668;28;20402;-76
2023/01/10 07:35:55;;;;;;;46.00;7.60;;;;;;;5.99;100.00;101491.75;5032506;28;20439;-76
2023/01/10 07:38:22;;;;;;;45.58;8.02;;;;;;;5.97;100.00;101496.22;5073051;28;20036;-75
2023/01/10 07:40:48;;;;;;;40.75;6.72;;;;;;;5.95;100.00;101505.97;5081043;28;20074;-75
2023/01/10 07:43:14;;;;;;;42.63;7.40;;;;;;;5.91;100.00;101493.66;5034309;28;20557;-76
2023/01/10 07:45:41;;;;;;;41.92;6.07;;;;;;;5.91;100.00;101496.31;5049394;28;20566;-76
2023/01/10 07:48:07;;;;;;;44.63;5.68;;;;;;;5.83;100.00;101502.72;5017223;28;20490;-75
2023/01/10 07:50:35;;;;;;;43.63;6.72;;;;;;;5.86;100.00;101511.50;5052988;28;20063;-76
2023/01/10 07:53:03;;;;;;;45.53;6.30;;;;;;;5.82;100.00;101513.34;5050681;28;20032;-75
2023/01/10 07:55:29;;;;;;;29.52;6.43;;;;;;;5.68;100.00;101507.50;5073470;28;20487;-76
2023/01/10 07:57:56;;;;;;;43.92;7.43;;;;;;;5.53;100.00;101508.75;5072294;28;20035;-75
2023/01/10 08:00:22;;;;;;;56.83;9.13;;;;;;;5.39;100.00;101509.94;5072760;28;20058;-76
2023/01/10 08:02:53;;;;;;;34.22;7.20;;;;;;;5.31;100.00;101514.56;5054755;28;20402;-76
2023/01/10 08:05:20;;;;;;;40.85;7.88;;;;;;;5.19;100.00;101512.16;5041186;28;20189;-76
2023/01/10 08:07:46;;;;;;;43.78;8.98;;;;;;;5.14;100.00;101521.97;5054045;28;20624;-76
2023/01/10 08:10:12;;;;;;;55.17;9.27;;;;;;;5.07;100.00;101520.38;5073162;28;20486;-76
2023/01/10 08:12:38;;;;;;;67.80;11.20;;;;;;;5.03;100.00;101523.09;5055534;28;20045;-76
2023/01/10 08:15:05;;;;;;;47.72;9.00;;;;;;;4.98;100.00;101529.38;5052045;28;20425;-76
2023/01/10 08:17:35;;;;;;;48.13;10.68;;;;;;;4.95;100.00;101526.81;5050668;28;20450;-76
2023/01/10 08:20:02;;;;;;;41.33;9.82;;;;;;;4.93;100.00;101528.59;5021422;28;20048;-76
2023/01/10 08:22:28;;;;;;;62.30;12.32;;;;;;;4.94;100.00;101531.22;5060911;28;20604;-76
2023/01/10 08:24:54;;;;;;;37.22;9.63;;;;;;;4.93;100.00;101528.59;5042328;28;20397;-75
2023/01/10 08:27:20;;;;;;;52.67;11.55;;;;;;;4.92;100.00;101522.44;5049379;28;20403;-76
2023/01/10 08:29:47;;;;;;;47.90;10.50;;;;;;;4.92;100.00;101527.75;5055231;28;20052;-75
2023/01/10 08:32:13;;;;;;;53.10;10.15;;;;;;;4.89;100.00;101527.81;5073854;28;20462;-76
2023/01/10 08:34:39;;;;;;;50.15;11.07;;;;;;;4.89;100.00;101526.94;5035327;28;20044;-76
2023/01/10 08:37:05;;;;;;;49.45;10.15;;;;;;;4.87;100.00;101520.81;5053968;28;20097;-76
2023/01/10 08:39:34;;;;;;;44.35;11.30;;;;;;;4.85;100.00;101515.53;5054312;28;20038;-74
2023/01/10 08:42:00;;;;;;;59.88;11.65;;;;;;;4.89;100.00;101522.50;5021289;28;20040;-75
2023/01/10 08:44:26;;;;;;;61.72;12.38;;;;;;;4.93;100.00;101529.47;5071417;28;20040;-75
2023/01/10 08:46:53;;;;;;;56.42;10.07;;;;;;;4.94;100.00;101525.03;5053811;28;20041;-75
2023/01/10 08:49:19;;;;;;;60.05;11.75;;;;;;;4.99;100.00;101526.69;5045801;28;20044;-76
2023/01/10 08:51:45;;;;;;;48.42;10.38;;;;;;;5.02;100.00;101515.19;5070140;28;20033;-76
2023/01/10 08:54:11;;;;;;;42.45;9.32;;;;;;;5.05;100.00;101507.16;5072212;28;20084;-76
2023/01/10 08:56:39;;;;;;;56.40;12.40;;;;;;;5.07;100.00;101508.03;5071085;28;20051;-76
2023/01/10 08:59:06;;;;;;;73.55;13.07;;;;;;;5.10;100.00;101510.59;5025143;28;20067;-76
2023/01/10 09:01:32;;;;;;;55.72;10.95;;;;;;;5.12;100.00;101511.41;5069325;28;20404;-76
2023/01/10 09:03:58;;;;;;;50.60;9.82;;;;;;;5.14;100.00;101516.69;5054727;28;20449;-76
2023/01/10 09:06:25;;;;;;;42.63;9.23;;;;;;;5.15;100.00;101518.44;5053841;28;20301;-76
2023/01/10 09:08:51;;;;;;;41.10;8.73;;;;;;;5.19;100.00;101512.16;5054379;28;20058;-76
2023/01/10 09:11:17;;;;;;;38.72;9.88;;;;;;;5.22;100.00;101520.91;5052257;28;20131;-76
2023/01/10 09:13:47;;;;;;;34.05;8.75;;;;;;;5.21;100.00;101502.41;5071858;28;20450;-76
2023/01/10 09:16:13;;;;;;;43.00;8.68;;;;;;;5.25;100.00;101514.66;5050021;28;20040;-76
2023/01/10 09:18:39;;;;;;;49.42;9.38;;;;;;;5.28;100.00;101511.97;5071678;28;20140;-76
2023/01/10 09:21:07;;;;;;;44.08;8.43;;;;;;;5.29;100.00;101510.19;5054531;28;20127;-76
2023/01/10 09:23:33;;;;;;;38.78;8.70;;;;;;;5.29;100.00;101505.75;5054361;28;20054;-77
2023/01/10 09:26:00;;;;;;;48.58;8.98;;;;;;;5.29;100.00;101511.03;5053998;28;20040;-76
2023/01/10 09:28:26;;;;;;;48.92;10.18;;;;;;;5.31;100.00;101509.25;5054133;28;20387;-76
2023/01/10 09:30:53;;;;;;;39.90;9.55;;;;;;;5.35;100.00;101504.72;5070476;28;20546;-77
2023/01/10 09:33:19;;;;;;;45.53;9.02;;;;;;;5.35;100.00;101500.34;5053287;28;20143;-76
2023/01/10 09:35:45;;;;;;;34.47;7.63;;;;;;;5.36;100.00;101501.19;5053140;28;20044;-76
2023/01/10 09:38:17;;;;;;;46.17;8.90;;;;;;;5.41;100.00;101499.31;5023410;28;20037;-76
2023/01/10 09:41:05;;;;;;;37.63;8.38;;;;;;;5.45;100.00;101506.28;5064025;28;20499;-76
2023/01/10 09:43:54;;;;;;;40.47;10.30;;;;;;;5.47;100.00;101503.59;5071041;28;20029;-77
2023/01/10 09:46:39;;;;;;;38.30;8.50;;;;;;;5.49;100.00;101507.06;5053256;28;20036;-76
2023/01/10 09:49:37;;;;;;;47.83;9.40;;;;;;;5.50;100.00;101496.44;5033962;28;20450;-76
2023/01/10 09:52:09;;;;;;;50.25;7.70;;;;;;;5.50;100.00;101492.91;5048424;28;20033;-76
2023/01/10 09:54:39;;;;;;;39.15;7.97;;;;;;;5.52;100.00;101499.94;5043327;28;20040;-76
2023/01/10 09:57:07;;;;;;;38.63;7.88;;;;;;;5.51;100.00;101505.25;5062190;28;20033;-76
2023/01/10 09:59:41;;;;;;;34.53;7.07;;;;;;;5.55;100.00;101498.97;5002400;28;20048;-76
2023/01/10 10:02:30;;;;;;;41.42;7.25;;;;;;;5.53;100.00;101508.75;5033730;28;20543;-78
2023/01/10 10:05:19;;;;;;;48.25;9.07;;;;;;;5.52;100.00;101491.13;5034516;28;20075;-76
2023/01/10 10:07:57;;;;;;;47.13;7.40;;;;;;;5.54;100.00;101489.31;5044119;28;20032;-76
2023/01/10 10:10:25;;;;;;;38.72;9.02;;;;;;;5.50;100.00;101483.22;5064182;28;20044;-76
2023/01/10 10:13:15;;;;;;;44.45;7.47;;;;;;;5.51;100.00;101484.06;5070919;28;20032;-76
2023/01/10 10:16:01;;;;;;;43.15;8.13;;;;;;;5.52;100.00;101486.69;5052702;28;20448;-76
2023/01/10 10:18:52;;;;;;;26.88;5.97;;;;;;;5.56;100.00;101490.13;5069997;28;20037;-77
2023/01/10 10:21:38;;;;;;;37.35;7.30;;;;;;;5.55;100.00;101501.63;5052502;28;20067;-76
2023/01/10 10:24:20;;;;;;;46.15;7.38;;;;;;;5.59;100.00;101492.69;5046587;28;20131;-76
2023/01/10 10:26:58;;;;;;;29.08;6.30;;;;;;;5.60;100.00;101491.78;5046989;28;20044;-77
2023/01/10 10:29:29;;;;;;;29.33;6.75;;;;;;;5.53;100.00;101492.84;5034617;28;20044;-76
2023/01/10 10:32:13;;;;;;;31.85;5.82;;;;;;;5.56;100.00;101495.44;5036460;28;20047;-77
2023/01/10 10:34:54;;;;;;;43.75;7.38;;;;;;;5.56;100.00;101483.06;5069735;28;20063;-77
2023/01/10 10:37:22;;;;;;;;;;;;;;;5.56;100.00;101476.91;5035504;28;20029;-76
2023/01/10 10:39:58;;;;;;;35.63;6.03;;;;;;;5.44;100.00;101467.44;5051792;28;19919;-76
2023/01/10 10:42:29;;;;;;;37.92;6.82;;;;;;;5.49;100.00;101475.28;5070132;28;20038;-76
2023/01/10 10:45:04;;;;;;;38.83;6.35;;;;;;;5.45;100.00;101458.59;5067740;28;20045;-75
2023/01/10 10:47:34;;;;;;;32.15;7.32;;;;;;;5.45;100.00;101458.59;5069297;28;20039;-77
2023/01/10 10:50:27;;;;;;;40.50;6.22;;;;;;;5.50;100.00;101454.09;5050894;28;20132;-76
2023/01/10 10:52:53;;;;;;;37.88;6.78;;;;;;;5.46;100.00;101460.38;5055082;28;20073;-76
2023/01/10 10:55:27;;;;;;;36.85;7.00;;;;;;;5.47;100.00;101450.63;5069823;28;20438;-76
2023/01/10 10:57:54;;;;;;;32.40;6.72;;;;;;;5.46;100.00;101449.78;5073726;28;20112;-76
2023/01/10 11:00:21;;;;;;;29.48;5.78;;;;;;;5.49;100.00;101443.53;5074175;28;20426;-76
2023/01/10 11:02:56;;;;;;;41.72;7.63;;;;;;;5.48;100.00;101441.75;5051259;28;20570;-75
2023/01/10 11:05:36;;;;;;;34.03;5.45;;;;;;;5.52;100.00;101427.56;5044646;28;20127;-76
2023/01/10 11:08:07;;;;;;;40.47;7.90;;;;;;;5.52;100.00;101423.13;5053001;28;20087;-76
2023/01/10 11:10:37;;;;;;;;;;;;;;;5.54;100.00;101425.75;5071680;28;20032;-76
2023/01/10 11:13:35;;;;;;;33.28;5.47;;;;;;;5.56;100.00;101419.50;5069379;28;20387;-75
2023/01/10 11:16:05;;;;;;;39.47;5.57;;;;;;;5.63;100.00;101421.06;5051717;28;20465;-76
2023/01/10 11:18:31;;;;;;;38.95;5.45;;;;;;;5.64;100.00;101429.88;5052352;28;20057;-76
2023/01/10 11:21:04;;;;;;;38.30;6.82;;;;;;;5.68;100.00;101413.00;5052210;28;20434;-76
2023/01/10 11:23:39;;;;;;;32.15;6.57;;;;;;;5.70;100.00;101410.31;5069663;28;20085;-76
2023/01/10 11:26:20;;;;;;;36.08;5.30;;;;;;;5.70;100.00;101405.00;5069092;28;20032;-76
2023/01/10 11:28:46;;;;;;;42.95;6.05;;;;;;;5.70;100.00;101400.59;5050308;28;20150;-76
2023/01/10 11:31:12;;;;;;;39.72;5.95;;;;;;;5.73;100.00;101394.34;5052087;28;20404;-76
2023/01/10 11:33:40;;;;;;;35.78;6.65;;;;;;;5.74;100.00;101402.25;5052003;28;20425;-76
2023/01/10 11:36:11;;;;;;;27.85;5.68;;;;;;;5.75;100.00;101395.19;5051284;28;20044;-76